Time;durP1;ratioP1;P1;durP2;ratioP2;P2;SDS_P1;SDS_P2;PMS_P1;PMS_P2;Temp;Humidity;BMP_temperature;BMP_pressure;BME280_temperature;BME280_humidity;BME280_pressure;Samples;Min_cycle;Max_cycle;Signal;HPM_P1;HPM_P2
2022/08/19 00:01:37;;;;;;;19.33;17.40;;;20.90;38.70;;;;;;5083673;28;20560;-61
2022/08/19 00:04:06;;;;;;;21.27;18.83;;;20.90;38.70;;;;;;5085353;28;21252;-61
2022/08/19 00:06:35;;;;;;;22.03;18.30;;;21.00;39.60;;;;;;5082184;28;20456;-61
2022/08/19 00:09:02;;;;;;;22.83;19.23;;;21.10;38.80;;;;;;5085400;28;20541;-61
2022/08/19 00:11:30;;;;;;;22.30;19.60;;;21.00;38.40;;;;;;5083351;28;20846;-61
2022/08/19 00:13:57;;;;;;;20.60;18.40;;;21.00;38.30;;;;;;5083347;28;20821;-61
2022/08/19 00:16:25;;;;;;;21.57;19.37;;;21.00;38.30;;;;;;5082692;28;20480;-61
2022/08/19 00:18:53;;;;;;;23.90;21.37;;;20.90;38.20;;;;;;5085116;28;20456;-61
2022/08/19 00:21:19;;;;;;;24.90;22.43;;;20.80;38.30;;;;;;5087621;28;20456;-61
2022/08/19 00:23:46;;;;;;;24.17;20.73;;;20.80;38.40;;;;;;5086561;28;20485;-62
2022/08/19 00:26:13;;;;;;;24.03;21.50;;;20.80;38.50;;;;;;5083216;28;20837;-61
2022/08/19 00:28:41;;;;;;;23.87;21.33;;;20.70;38.70;;;;;;5085833;28;20954;-61
2022/08/19 00:31:09;;;;;;;25.07;22.53;;;20.70;38.60;;;;;;5082156;28;20479;-62
2022/08/19 00:33:36;;;;;;;23.57;21.23;;;20.70;38.80;;;;;;5087409;28;20471;-62
2022/08/19 00:36:06;;;;;;;25.40;22.80;;;20.60;38.80;;;;;;5088430;28;20451;-62
2022/08/19 00:38:33;;;;;;;23.57;21.17;;;20.60;38.80;;;;;;5087403;28;20447;-62
2022/08/19 00:41:00;;;;;;;27.97;24.13;;;20.60;38.90;;;;;;5086893;28;20515;-62
2022/08/19 00:43:28;;;;;;;27.00;23.67;;;20.50;39.10;;;;;;5091035;28;20487;-61
2022/08/19 00:45:56;;;;;;;27.80;24.80;;;20.50;39.40;;;;;;5085879;28;20472;-61
2022/08/19 00:48:24;;;;;;;27.20;24.30;;;20.50;39.50;;;;;;5089796;28;20464;-61
2022/08/19 00:50:52;;;;;;;26.90;22.57;;;20.50;39.50;;;;;;5082886;28;20456;-61
2022/08/19 00:53:23;;;;;;;27.40;24.37;;;20.50;39.30;;;;;;5087008;28;20475;-62
2022/08/19 00:55:51;;;;;;;27.47;24.57;;;20.50;39.40;;;;;;5090388;28;20478;-61
2022/08/19 00:58:22;;;;;;;27.17;23.60;;;20.40;39.50;;;;;;5082609;28;20469;-61
2022/08/19 01:00:49;;;;;;;26.90;24.10;;;20.40;39.50;;;;;;5083005;28;20696;-61
2022/08/19 01:03:20;;;;;;;27.30;24.40;;;20.40;39.50;;;;;;5084811;28;20491;-61
2022/08/19 01:05:49;;;;;;;28.47;25.47;;;20.40;39.80;;;;;;5082720;28;20460;-62
2022/08/19 01:08:18;;;;;;;30.33;26.63;;;20.40;40.00;;;;;;5087927;28;20452;-61
2022/08/19 01:10:47;;;;;;;26.93;24.23;;;20.40;40.90;;;;;;5086487;28;20459;-61
2022/08/19 01:13:15;;;;;;;27.90;24.90;;;20.40;40.20;;;;;;5083805;28;20480;-61
2022/08/19 01:15:45;;;;;;;28.83;25.70;;;20.40;40.20;;;;;;5083968;28;20587;-61
2022/08/19 01:18:14;;;;;;;28.63;25.73;;;20.40;40.20;;;;;;5091270;28;20456;-61
2022/08/19 01:20:44;;;;;;;30.47;25.97;;;20.40;40.40;;;;;;5088613;28;20456;-61
2022/08/19 01:23:13;;;;;;;28.30;25.20;;;20.40;40.60;;;;;;5086192;28;20476;-62
2022/08/19 01:25:43;;;;;;;26.07;23.47;;;20.40;40.30;;;;;;5084260;28;20462;-61
2022/08/19 01:28:17;;;;;;;30.23;27.07;;;20.40;40.10;;;;;;5084694;28;20453;-61
2022/08/19 01:30:45;;;;;;;28.90;25.90;;;20.40;40.30;;;;;;5086120;28;20476;-61
2022/08/19 01:33:12;;;;;;;29.70;25.37;;;20.40;40.20;;;;;;5082729;28;20501;-61
2022/08/19 01:35:40;;;;;;;27.80;24.87;;;20.50;40.40;;;;;;5092357;28;20475;-61
2022/08/19 01:38:09;;;;;;;28.70;25.30;;;20.50;40.00;;;;;;5081342;28;20456;-61
2022/08/19 01:40:41;;;;;;;29.37;26.40;;;20.50;39.70;;;;;;5088653;28;20733;-61
2022/08/19 01:43:09;;;;;;;28.27;25.37;;;20.50;39.80;;;;;;5090391;28;20493;-61
2022/08/19 01:45:37;;;;;;;29.40;26.40;;;20.50;39.80;;;;;;5087753;28;20456;-62
2022/08/19 01:48:04;;;;;;;29.10;26.10;;;20.50;39.90;;;;;;5090751;28;20467;-61
2022/08/19 01:50:32;;;;;;;29.50;25.73;;;20.50;39.80;;;;;;5088277;28;20947;-61
2022/08/19 01:53:00;;;;;;;28.17;25.27;;;20.50;40.10;;;;;;5087738;28;20480;-61
2022/08/19 01:55:27;;;;;;;30.43;27.13;;;20.50;40.00;;;;;;5081656;28;20998;-61
2022/08/19 01:57:58;;;;;;;29.47;26.37;;;20.50;39.90;;;;;;5083713;28;20456;-61
2022/08/19 02:00:27;;;;;;;30.60;27.33;;;20.50;39.70;;;;;;5087941;28;20452;-61
2022/08/19 02:02:54;;;;;;;28.87;25.77;;;20.50;39.60;;;;;;5076297;28;20476;-61
2022/08/19 02:05:21;;;;;;;28.57;25.57;;;20.50;39.70;;;;;;5086286;28;20479;-61
2022/08/19 02:07:49;;;;;;;30.00;26.87;;;20.50;39.60;;;;;;5083718;28;20456;-61
2022/08/19 02:10:18;;;;;;;29.07;26.07;;;20.40;39.70;;;;;;5083893;28;20464;-61
2022/08/19 02:12:46;;;;;;;27.30;24.67;;;20.40;39.80;;;;;;5088041;28;20480;-61
2022/08/19 02:15:14;;;;;;;29.97;26.77;;;20.40;39.50;;;;;;5089670;28;20464;-61
2022/08/19 02:17:41;;;;;;;32.77;26.80;;;20.40;39.60;;;;;;5088470;28;20486;-62
2022/08/19 02:20:09;;;;;;;28.80;25.70;;;20.40;39.60;;;;;;5086869;28;20453;-61
2022/08/19 02:22:36;;;;;;;30.77;27.47;;;20.40;39.50;;;;;;5086703;28;21113;-61
2022/08/19 02:25:04;;;;;;;31.47;28.17;;;20.40;39.40;;;;;;5088333;28;20472;-61
2022/08/19 02:27:33;;;;;;;28.37;25.37;;;20.40;39.40;;;;;;5084137;28;20519;-61
2022/08/19 02:30:00;;;;;;;29.77;26.57;;;20.40;39.30;;;;;;5088473;28;20456;-61
2022/08/19 02:32:30;;;;;;;29.73;26.63;;;20.40;39.20;;;;;;5085987;28;20568;-61
2022/08/19 02:34:57;;;;;;;30.90;26.73;;;20.40;39.20;;;;;;5085732;28;20452;-62
2022/08/19 02:40:09;;;;;;;31.67;28.47;;;20.40;39.10;;;;;;5086353;28;20537;-62
2022/08/19 02:42:36;;;;;;;30.87;27.57;;;20.40;39.10;;;;;;5085173;28;20495;-62
2022/08/19 02:45:02;;;;;;;28.33;25.33;;;20.40;39.00;;;;;;5087346;28;20492;-61
2022/08/19 02:47:31;;;;;;;32.73;27.10;;;20.40;38.90;;;;;;5088141;28;21000;-61
2022/08/19 02:49:57;;;;;;;32.03;27.37;;;20.30;39.10;;;;;;5079653;28;20463;-61
2022/08/19 02:52:25;;;;;;;30.53;27.33;;;20.30;39.10;;;;;;5088137;28;20476;-61
2022/08/19 02:54:52;;;;;;;31.83;28.53;;;20.30;39.10;;;;;;5085037;28;20463;-62
2022/08/19 02:57:18;;;;;;;31.20;27.87;;;20.30;39.20;;;;;;5075001;28;20457;-61
2022/08/19 02:59:45;;;;;;;29.90;26.70;;;20.30;39.30;;;;;;5088376;28;20463;-61
2022/08/19 03:02:12;;;;;;;33.30;28.00;;;20.30;39.40;;;;;;5078931;28;20480;-61
2022/08/19 03:04:41;;;;;;;33.57;29.97;;;20.30;39.20;;;;;;5082330;28;21003;-61
2022/08/19 03:07:08;;;;;;;31.00;27.20;;;20.30;39.30;;;;;;5086347;28;20456;-61
2022/08/19 03:09:37;;;;;;;33.80;28.90;;;20.40;39.20;;;;;;5088277;28;20456;-61
2022/08/19 03:12:04;;;;;;;32.03;28.50;;;20.40;39.10;;;;;;5081572;28;20481;-61
2022/08/19 03:14:32;;;;;;;32.13;27.57;;;20.40;39.00;;;;;;5082119;28;20526;-61
2022/08/19 03:16:59;;;;;;;31.57;27.80;;;20.40;38.80;;;;;;5087136;28;20456;-61
2022/08/19 03:19:26;;;;;;;32.03;28.63;;;20.40;39.00;;;;;;5088660;28;20458;-61
2022/08/19 03:21:55;;;;;;;31.20;27.87;;;20.40;39.20;;;;;;5078876;28;21027;-61
2022/08/19 03:24:22;;;;;;;30.70;26.27;;;20.30;39.30;;;;;;5082433;28;21186;-61
2022/08/19 03:26:51;;;;;;;34.70;28.87;;;20.30;39.20;;;;;;5084249;28;20453;-61
2022/08/19 03:29:19;;;;;;;32.33;27.67;;;20.30;39.10;;;;;;5083890;28;20460;-61
2022/08/19 03:31:46;;;;;;;34.53;30.33;;;20.30;39.20;;;;;;5089726;28;20995;-61
2022/08/19 03:34:15;;;;;;;34.53;29.40;;;20.20;39.30;;;;;;5090303;28;20460;-61
2022/08/19 03:36:42;;;;;;;33.43;28.37;;;20.20;39.30;;;;;;5089035;28;20463;-61
2022/08/19 03:39:11;;;;;;;34.50;28.90;;;20.20;39.30;;;;;;5086986;28;20452;-61
2022/08/19 03:41:41;;;;;;;32.67;27.90;;;20.20;39.20;;;;;;5084673;28;20487;-61
2022/08/19 03:44:08;;;;;;;32.10;27.80;;;20.20;39.40;;;;;;5075932;28;20846;-61
2022/08/19 03:46:36;;;;;;;31.03;27.30;;;20.10;39.30;;;;;;5080546;28;20473;-61
2022/08/19 03:49:07;;;;;;;32.30;28.07;;;20.10;39.40;;;;;;5087762;28;20460;-61
2022/08/19 03:51:36;;;;;;;33.07;27.87;;;20.20;39.60;;;;;;5086508;28;21042;-61
2022/08/19 03:54:04;;;;;;;35.27;29.77;;;20.20;39.30;;;;;;5076236;28;20461;-61
2022/08/19 03:56:35;;;;;;;33.90;28.73;;;20.10;39.50;;;;;;5087099;28;20456;-63
2022/08/19 03:59:03;;;;;;;31.60;27.87;;;20.10;39.70;;;;;;5079946;28;20461;-61
2022/08/19 04:01:30;;;;;;;34.60;29.87;;;20.10;39.80;;;;;;5087634;28;20691;-61
2022/08/19 04:03:58;;;;;;;35.60;30.27;;;20.10;39.60;;;;;;5076762;28;21379;-61
2022/08/19 04:06:27;;;;;;;35.73;29.17;;;20.20;39.50;;;;;;5079018;28;20465;-65
2022/08/19 04:08:55;;;;;;;36.57;30.30;;;20.20;39.70;;;;;;5085436;28;20464;-61
2022/08/19 04:11:25;;;;;;;35.73;30.67;;;20.20;39.60;;;;;;5081075;28;20824;-60
2022/08/19 04:13:54;;;;;;;40.87;30.57;;;20.30;39.80;;;;;;5075739;28;20459;-60
2022/08/19 04:16:22;;;;;;;33.80;28.23;;;20.30;39.50;;;;;;5092146;28;20467;-60
2022/08/19 04:18:50;;;;;;;36.90;31.80;;;20.20;39.50;;;;;;5087891;28;20472;-63
2022/08/19 04:21:19;;;;;;;33.40;27.40;;;20.10;39.50;;;;;;5079444;28;20468;-63
2022/08/19 04:23:47;;;;;;;33.53;29.53;;;20.10;39.80;;;;;;5081312;28;20468;-63
2022/08/19 04:26:15;;;;;;;37.13;31.53;;;20.10;39.70;;;;;;5081348;28;20477;-63
2022/08/19 04:28:42;;;;;;;37.10;29.80;;;20.00;39.90;;;;;;5085222;28;20464;-63
2022/08/19 04:31:14;;;;;;;35.53;29.73;;;20.00;39.80;;;;;;5087596;28;21061;-65
2022/08/19 04:33:41;;;;;;;34.50;29.37;;;20.00;40.00;;;;;;5080450;28;20515;-63
2022/08/19 04:36:09;;;;;;;34.63;30.20;;;20.00;40.00;;;;;;5095397;22;20841;-64
2022/08/19 04:38:36;;;;;;;33.40;29.70;;;19.90;40.00;;;;;;5103599;27;20459;-62
2022/08/19 04:43:50;;;;;;;39.60;30.23;;;20.00;40.20;;;;;;5099514;27;20431;-61
2022/08/19 04:46:19;;;;;;;39.53;30.97;;;19.90;40.20;;;;;;5099164;28;20973;-61
2022/08/19 04:48:46;;;;;;;36.13;30.07;;;19.90;40.50;;;;;;5097241;28;20538;-74
2022/08/19 04:51:13;;;;;;;38.03;31.10;;;19.90;40.80;;;;;;5102876;27;20466;-72
2022/08/19 04:53:42;;;;;;;38.27;32.60;;;19.90;40.80;;;;;;5106664;27;20467;-70
2022/08/19 04:56:11;;;;;;;36.10;29.73;;;19.90;40.80;;;;;;5103443;27;21013;-71
2022/08/19 04:58:39;;;;;;;35.93;29.97;;;19.90;40.80;;;;;;5102431;27;20490;-71
2022/08/19 05:01:06;;;;;;;35.03;29.50;;;19.90;40.60;;;;;;5102589;27;20463;-70
2022/08/19 05:03:34;;;;;;;37.97;30.63;;;19.90;40.70;;;;;;5100379;27;20456;-70
2022/08/19 05:06:07;;;;;;;39.20;31.67;;;19.90;40.70;;;;;;5095993;27;20539;-70
2022/08/19 05:08:35;;;;;;;40.00;32.03;;;20.00;40.60;;;;;;5103688;27;20775;-73
2022/08/19 05:11:07;;;;;;;40.60;33.57;;;20.00;41.00;;;;;;5106736;27;21123;-71
2022/08/19 05:13:34;;;;;;;39.50;32.47;;;19.90;41.20;;;;;;5094321;27;20464;-68
2022/08/19 05:16:01;;;;;;;39.80;31.30;;;20.00;41.00;;;;;;5097067;27;20877;-67
2022/08/19 05:24:00;;;;;;;40.60;31.00;;;19.90;40.80;;;;;;5104882;27;20453;-66
2022/08/19 05:26:27;;;;;;;40.53;31.27;;;19.90;40.60;;;;;;5103673;27;20507;-67
2022/08/19 05:28:54;;;;;;;37.53;29.40;;;19.90;40.70;;;;;;5105865;28;20464;-67
2022/08/19 05:31:21;;;;;;;38.10;31.93;;;20.00;40.60;;;;;;5102950;27;20475;-66
2022/08/19 05:33:49;;;;;;;39.60;31.63;;;20.00;40.80;;;;;;5099597;27;20806;-67
2022/08/19 05:36:18;;;;;;;35.73;30.47;;;20.00;40.70;;;;;;5116262;27;20482;-67
2022/08/19 05:38:45;;;;;;;40.73;31.57;;;20.00;41.10;;;;;;5115275;27;20860;-66
2022/08/19 05:41:14;;;;;;;38.77;31.80;;;20.00;41.10;;;;;;5125012;27;20462;-66
2022/08/19 05:43:40;;;;;;;36.30;30.13;;;20.00;41.30;;;;;;5117952;27;20459;-66
2022/08/19 05:46:08;;;;;;;38.90;29.60;;;20.00;41.50;;;;;;5126281;27;20849;-67
2022/08/19 05:48:35;;;;;;;38.53;31.70;;;20.00;41.30;;;;;;5123606;27;20480;-67
2022/08/19 05:51:05;;;;;;;36.30;29.57;;;20.10;41.10;;;;;;5122549;27;20486;-67
2022/08/19 05:53:34;;;;;;;39.17;30.33;;;20.20;40.80;;;;;;5123850;27;20594;-72
2022/08/19 05:56:05;;;;;;;34.60;28.73;;;20.30;40.40;;;;;;5120390;27;21246;-71
2022/08/19 05:58:32;;;;;;;34.50;28.73;;;20.30;40.20;;;;;;5125302;27;20450;-70
2022/08/19 06:01:04;;;;;;;35.97;30.30;;;20.30;40.00;;;;;;5121058;27;20467;-66
2022/08/19 06:03:30;;;;;;;37.47;30.03;;;20.30;39.80;;;;;;5117387;27;20538;-67
2022/08/19 06:05:59;;;;;;;41.07;32.00;;;20.30;39.90;;;;;;5120846;27;20482;-69
2022/08/19 06:08:26;;;;;;;37.20;30.97;;;20.30;39.90;;;;;;5117089;27;20454;-71
2022/08/19 06:10:55;;;;;;;37.10;31.27;;;20.30;39.70;;;;;;5118154;27;20532;-73
2022/08/19 06:13:23;;;;;;;39.33;32.53;;;20.30;39.80;;;;;;5118929;27;20460;-68
2022/08/19 06:15:50;;;;;;;38.13;31.53;;;20.30;39.80;;;;;;5121973;27;20494;-68
2022/08/19 06:18:17;;;;;;;38.00;31.40;;;20.30;39.60;;;;;;5124354;27;20461;-71
2022/08/19 06:20:44;;;;;;;39.23;30.90;;;20.30;39.50;;;;;;5126031;27;20455;-64
2022/08/19 06:23:11;;;;;;;41.97;33.80;;;20.30;40.20;;;;;;5119218;27;20832;-67
2022/08/19 06:25:40;;;;;;;40.17;32.10;;;20.30;39.80;;;;;;5122610;27;20497;-69
2022/08/19 06:28:08;;;;;;;35.23;29.73;;;20.30;39.90;;;;;;5126868;27;20938;-70
2022/08/19 06:30:36;;;;;;;37.57;30.93;;;20.30;39.60;;;;;;5124222;27;20469;-69
2022/08/19 06:33:03;;;;;;;39.00;32.53;;;20.30;39.60;;;;;;5128044;27;20865;-69
2022/08/19 06:35:32;;;;;;;37.20;31.03;;;20.30;39.90;;;;;;5124733;27;20949;-69
2022/08/19 06:37:59;;;;;;;40.43;31.37;;;20.20;39.70;;;;;;5119956;27;20462;-68
2022/08/19 06:40:27;;;;;;;36.80;28.77;;;20.30;39.90;;;;;;5125818;27;20469;-71
2022/08/19 06:42:54;;;;;;;37.90;30.03;;;20.30;39.80;;;;;;5120651;27;20466;-67
2022/08/19 06:45:22;;;;;;;35.77;30.83;;;20.30;39.60;;;;;;5122906;27;20478;-69
2022/08/19 06:47:49;;;;;;;36.50;29.90;;;20.40;39.50;;;;;;5121960;27;20970;-69
2022/08/19 06:50:16;;;;;;;34.73;29.20;;;20.40;39.20;;;;;;5123048;27;20458;-73
2022/08/19 06:52:42;;;;;;;36.60;29.30;;;20.50;39.30;;;;;;5124873;27;20957;-71
2022/08/19 06:55:09;;;;;;;34.87;29.00;;;20.50;38.90;;;;;;5123756;27;20478;-68
2022/08/19 06:57:37;;;;;;;34.60;29.13;;;20.60;38.80;;;;;;5123198;27;20454;-70
2022/08/19 07:00:10;;;;;;;34.10;28.00;;;20.60;38.60;;;;;;5121380;27;20535;-70
2022/08/19 07:02:38;;;;;;;37.13;30.00;;;20.60;38.50;;;;;;5125562;27;20971;-69
2022/08/19 07:05:06;;;;;;;31.47;26.67;;;20.70;38.30;;;;;;5121824;27;20925;-68
2022/08/19 07:07:33;;;;;;;33.50;27.57;;;20.70;38.10;;;;;;5123990;27;20477;-69
2022/08/19 07:10:00;;;;;;;38.87;29.33;;;20.70;38.10;;;;;;5125501;27;20961;-68
2022/08/19 07:12:28;;;;;;;35.83;29.10;;;20.70;38.20;;;;;;5122213;27;21078;-70
2022/08/19 07:14:55;;;;;;;33.17;27.17;;;20.70;38.50;;;;;;5118877;27;20521;-69
2022/08/19 07:17:21;;;;;;;32.63;28.57;;;20.60;38.30;;;;;;5122112;27;20965;-70
2022/08/19 07:19:50;;;;;;;33.90;28.53;;;20.70;38.50;;;;;;5123214;27;20462;-68
2022/08/19 07:22:20;;;;;;;35.07;27.70;;;20.70;38.30;;;;;;5123938;27;20470;-70
2022/08/19 07:24:47;;;;;;;33.53;27.33;;;20.70;38.20;;;;;;5119706;27;20478;-68
2022/08/19 07:27:15;;;;;;;32.73;26.90;;;20.70;38.50;;;;;;5125068;27;20451;-62
2022/08/19 07:29:41;;;;;;;33.30;26.50;;;21.00;38.10;;;;;;5124902;27;20817;-61
2022/08/19 07:32:09;;;;;;;29.57;25.47;;;21.20;38.10;;;;;;5123727;27;20478;-62
2022/08/19 07:34:37;;;;;;;31.40;25.90;;;21.50;37.60;;;;;;5124486;27;20459;-63
2022/08/19 07:37:06;;;;;;;29.90;26.00;;;21.80;37.20;;;;;;5122712;27;20478;-60
2022/08/19 07:39:35;;;;;;;28.83;25.73;;;21.90;37.00;;;;;;5121541;27;20462;-60
2022/08/19 07:42:07;;;;;;;29.13;24.77;;;22.00;36.60;;;;;;5119074;27;20622;-59
2022/08/19 07:44:33;;;;;;;29.83;23.67;;;22.00;36.00;;;;;;5122618;27;20454;-61
2022/08/19 07:47:01;;;;;;;30.30;25.80;;;22.00;35.60;;;;;;5123832;27;21239;-61
2022/08/19 07:49:28;;;;;;;30.63;26.23;;;22.10;35.70;;;;;;5127625;27;20976;-61
2022/08/19 07:51:59;;;;;;;28.37;22.90;;;22.10;35.30;;;;;;5126461;27;20837;-60
2022/08/19 07:54:29;;;;;;;28.87;24.73;;;22.10;35.10;;;;;;5130119;27;20455;-60
2022/08/19 07:56:56;;;;;;;29.63;23.93;;;22.10;35.00;;;;;;5128702;27;20461;-60
2022/08/19 07:59:25;;;;;;;27.40;23.90;;;22.20;34.50;;;;;;5125229;27;21184;-60
2022/08/19 08:01:53;;;;;;;26.40;23.20;;;22.40;34.40;;;;;;5118978;27;21005;-60
2022/08/19 08:09:51;;;;;;;28.40;23.13;;;22.30;34.40;;;;;;5124117;27;20490;-59
2022/08/19 08:12:22;;;;;;;27.97;24.50;;;22.20;34.30;;;;;;5128324;27;20535;-59
2022/08/19 08:14:51;;;;;;;29.23;25.17;;;22.20;34.40;;;;;;5127951;27;20482;-59
2022/08/19 08:17:22;;;;;;;26.03;23.23;;;22.20;34.40;;;;;;5128805;27;20450;-59
2022/08/19 08:19:50;;;;;;;25.07;22.40;;;22.20;34.50;;;;;;5127167;27;20508;-59
2022/08/19 08:25:04;;;;;;;26.30;23.50;;;22.10;34.30;;;;;;5127328;27;20463;-60
2022/08/19 08:27:31;;;;;;;25.30;22.30;;;22.10;34.20;;;;;;5128325;27;20454;-59
2022/08/19 08:29:58;;;;;;;25.90;21.80;;;22.20;34.00;;;;;;5126405;27;20462;-62
2022/08/19 08:32:25;;;;;;;24.70;21.40;;;22.20;33.90;;;;;;5126622;27;20643;-62
2022/08/19 08:34:53;;;;;;;24.67;21.80;;;22.00;34.10;;;;;;5123134;27;20502;-65
2022/08/19 08:37:21;;;;;;;25.10;20.47;;;21.90;34.30;;;;;;5127661;27;20446;-59
2022/08/19 08:39:48;;;;;;;25.70;20.90;;;21.90;34.40;;;;;;5126588;27;20895;-59
2022/08/19 08:42:26;;;;;;;22.10;18.60;;;21.90;34.50;;;;;;5123017;27;20966;-63
2022/08/19 08:44:58;;;;;;;24.90;22.20;;;21.80;34.40;;;;;;5123896;27;20525;-63
2022/08/19 08:47:27;;;;;;;25.80;21.93;;;21.80;34.60;;;;;;5125515;27;20477;-61
2022/08/19 08:49:59;;;;;;;28.67;23.17;;;21.70;34.70;;;;;;5128517;27;20842;-61
2022/08/19 08:52:29;;;;;;;27.93;23.67;;;21.60;34.70;;;;;;5127533;27;20462;-61
2022/08/19 08:54:59;;;;;;;33.23;25.20;;;21.50;35.00;;;;;;5125522;27;20522;-60
2022/08/19 08:57:31;;;;;;;26.70;22.23;;;21.50;35.00;;;;;;5127977;27;20970;-59
2022/08/19 09:00:02;;;;;;;28.17;22.80;;;21.40;35.00;;;;;;5123661;27;20458;-66
2022/08/19 09:02:28;;;;;;;31.77;24.00;;;21.30;35.10;;;;;;5121045;27;21033;-68
2022/08/19 09:04:56;;;;;;;30.20;24.73;;;21.20;35.30;;;;;;5128667;27;20498;-66
2022/08/19 09:07:35;;;;;;;28.70;23.63;;;21.20;35.50;;;;;;5128545;27;20478;-66
2022/08/19 09:10:08;;;;;;;25.50;20.60;;;21.10;35.80;;;;;;5122709;27;20842;-81
2022/08/19 09:12:43;;;;;;;26.07;22.20;;;21.10;35.70;;;;;;5128124;27;20458;-77
2022/08/19 09:15:12;;;;;;;31.43;22.70;;;21.00;36.20;;;;;;5124221;27;20477;-71
2022/08/19 09:17:39;;;;;;;30.20;24.73;;;21.00;36.20;;;;;;5127902;27;20462;-72
2022/08/19 09:20:14;;;;;;;31.27;25.13;;;20.90;36.30;;;;;;5125306;27;20542;-73
2022/08/19 09:22:43;;;;;;;33.93;25.60;;;20.90;36.60;;;;;;5125011;27;20457;-74
2022/08/19 09:25:12;;;;;;;33.57;26.97;;;20.90;37.00;;;;;;5125130;27;20471;-69
2022/08/19 09:27:41;;;;;;;30.27;26.57;;;20.80;37.10;;;;;;5124218;27;20486;-68
2022/08/19 09:30:12;;;;;;;30.10;25.47;;;20.70;37.20;;;;;;5125304;27;20481;-69
2022/08/19 09:32:42;;;;;;;32.77;27.00;;;20.70;37.30;;;;;;5128518;27;20462;-70
2022/08/19 09:35:09;;;;;;;31.67;26.10;;;20.70;37.40;;;;;;5121689;27;20490;-69
2022/08/19 09:37:36;;;;;;;33.87;26.53;;;20.70;37.50;;;;;;5124232;27;20454;-70
2022/08/19 09:40:03;;;;;;;35.90;29.00;;;20.70;37.80;;;;;;5124877;27;20523;-70
2022/08/19 09:42:30;;;;;;;34.43;27.53;;;20.60;38.10;;;;;;5123725;27;20465;-70
2022/08/19 09:44:58;;;;;;;33.40;28.43;;;20.60;37.80;;;;;;5117105;27;20483;-70
2022/08/19 09:47:25;;;;;;;30.30;25.17;;;20.60;38.00;;;;;;5123595;27;20477;-73
2022/08/19 09:49:52;;;;;;;30.67;24.73;;;20.60;38.10;;;;;;5125678;27;20455;-72
2022/08/19 09:52:18;;;;;;;32.17;26.33;;;20.60;38.30;;;;;;5126072;27;20467;-66
2022/08/19 09:54:45;;;;;;;33.63;27.90;;;20.50;38.30;;;;;;5123466;27;21001;-73
2022/08/19 09:57:12;;;;;;;35.90;28.83;;;20.50;38.80;;;;;;5127252;27;20462;-73
2022/08/19 09:59:40;;;;;;;36.60;29.70;;;20.50;39.00;;;;;;5124140;27;20466;-76
2022/08/19 10:02:09;;;;;;;34.80;29.53;;;20.50;39.40;;;;;;5123421;27;20482;-74
2022/08/19 10:07:21;;;;;;;35.03;29.50;;;20.50;39.50;;;;;;5125246;27;20518;-74
2022/08/19 10:09:47;;;;;;;37.10;29.77;;;20.50;39.70;;;;;;5125933;27;20482;-77
2022/08/19 10:12:15;;;;;;;35.20;30.30;;;20.50;39.70;;;;;;5123480;27;20465;-70
2022/08/19 10:14:41;;;;;;;37.93;31.07;;;20.50;40.10;;;;;;5120168;27;20492;-71
2022/08/19 10:17:10;;;;;;;35.37;29.80;;;20.60;40.00;;;;;;5120350;27;20874;-80
2022/08/19 10:19:36;;;;;;;32.97;27.57;;;20.60;40.20;;;;;;5119622;27;20529;-72
2022/08/19 10:22:05;;;;;;;32.33;28.57;;;20.60;40.30;;;;;;5124719;27;20454;-72
2022/08/19 10:24:33;;;;;;;34.67;29.57;;;20.60;40.00;;;;;;5126085;27;20450;-72
2022/08/19 10:27:03;;;;;;;34.57;28.90;;;20.60;39.90;;;;;;5123790;27;20478;-75
2022/08/19 10:29:29;;;;;;;37.43;30.63;;;20.60;39.80;;;;;;5124623;27;20482;-73
2022/08/19 10:31:58;;;;;;;39.37;30.93;;;20.60;39.70;;;;;;5122982;27;20470;-75
2022/08/19 10:34:26;;;;;;;38.33;31.57;;;20.60;39.90;;;;;;5122328;27;20454;-70
2022/08/19 10:36:53;;;;;;;38.50;31.37;;;20.60;40.10;;;;;;5123067;27;21036;-70
2022/08/19 10:39:20;;;;;;;39.50;30.90;;;20.60;40.40;;;;;;5127529;27;20809;-75
2022/08/19 10:41:46;;;;;;;45.23;34.77;;;20.50;40.20;;;;;;5118998;27;20461;-73
2022/08/19 10:44:16;;;;;;;37.00;31.70;;;20.50;40.00;;;;;;5123900;27;20458;-73
2022/08/19 10:46:46;;;;;;;38.03;32.10;;;20.50;39.80;;;;;;5125577;27;20488;-73
2022/08/19 10:49:13;;;;;;;41.20;33.97;;;20.50;39.90;;;;;;5123164;27;20463;-71
2022/08/19 10:57:28;;;;;;;35.03;29.60;;;20.50;40.50;;;;;;5056925;28;21003;-69
2022/08/19 10:59:56;;;;;;;36.00;29.17;;;20.40;41.10;;;;;;5093628;27;20466;-73
2022/08/19 11:02:23;;;;;;;42.43;30.40;;;20.50;40.40;;;;;;5123037;27;20470;-76
2022/08/19 11:04:51;;;;;;;32.87;28.73;;;20.50;40.20;;;;;;5121316;27;21289;-78
2022/08/19 11:07:20;;;;;;;35.20;28.67;;;20.40;40.30;;;;;;5123105;27;20480;-79
2022/08/19 11:09:47;;;;;;;37.53;27.57;;;20.40;40.40;;;;;;5120731;22;20777;-60
2022/08/19 11:12:16;;;;;;;31.00;25.60;;;20.40;40.30;;;;;;5098489;27;20444;-65
2022/08/19 11:14:43;;;;;;;31.47;26.57;;;20.40;40.40;;;;;;5103452;27;20570;-62
2022/08/19 11:17:12;;;;;;;33.57;28.77;;;20.40;40.40;;;;;;5101755;28;20470;-60
2022/08/19 11:19:39;;;;;;;31.03;26.67;;;20.40;40.50;;;;;;5100040;27;20451;-60
2022/08/19 11:22:09;;;;;;;37.47;28.90;;;20.40;40.50;;;;;;5103799;28;20455;-61
2022/08/19 11:24:37;;;;;;;36.47;29.87;;;20.40;40.80;;;;;;5105461;28;20479;-61
2022/08/19 11:27:08;;;;;;;37.00;28.37;;;20.40;40.90;;;;;;5104885;27;20475;-61
2022/08/19 11:29:36;;;;;;;34.93;27.67;;;20.40;41.20;;;;;;5107331;28;20488;-61
2022/08/19 11:32:08;;;;;;;36.27;29.70;;;20.40;41.20;;;;;;5106234;27;21021;-60
2022/08/19 11:34:35;;;;;;;31.27;27.43;;;20.40;41.20;;;;;;5105572;27;20522;-61
2022/08/19 11:37:03;;;;;;;35.10;27.97;;;20.50;41.10;;;;;;5102609;28;20487;-61
2022/08/19 11:39:32;;;;;;;32.10;27.77;;;20.50;41.00;;;;;;5105401;28;21178;-61
2022/08/19 11:42:01;;;;;;;31.27;25.50;;;20.50;40.80;;;;;;5103488;28;20808;-61
2022/08/19 11:44:31;;;;;;;30.63;25.70;;;20.40;40.80;;;;;;5103213;28;20479;-61
2022/08/19 11:47:00;;;;;;;28.50;23.93;;;20.40;41.10;;;;;;5104070;28;20561;-62
2022/08/19 11:49:26;;;;;;;29.33;24.40;;;20.40;40.40;;;;;;5101045;28;20456;-60
2022/08/19 11:51:54;;;;;;;29.17;24.83;;;20.40;40.80;;;;;;5105091;28;20459;-61
2022/08/19 11:54:20;;;;;;;26.53;22.03;;;20.40;41.00;;;;;;5106715;28;20676;-60
2022/08/19 11:56:48;;;;;;;25.07;21.47;;;20.40;41.10;;;;;;5105819;28;20451;-61
2022/08/19 11:59:17;;;;;;;28.10;21.30;;;20.30;40.90;;;;;;5109158;28;20456;-60
2022/08/19 12:01:44;;;;;;;26.83;21.77;;;20.30;41.00;;;;;;5107938;27;20478;-61
2022/08/19 12:04:11;;;;;;;24.43;19.70;;;20.40;41.00;;;;;;5106440;28;20485;-61
2022/08/19 12:06:40;;;;;;;24.30;20.70;;;20.40;40.90;;;;;;5107234;28;20470;-61
2022/08/19 12:09:09;;;;;;;24.43;20.77;;;20.40;40.90;;;;;;5098498;28;20451;-61
2022/08/19 12:11:37;;;;;;;22.70;19.10;;;20.40;40.80;;;;;;5115366;27;20521;-61
2022/08/19 12:14:04;;;;;;;20.47;18.03;;;20.50;40.70;;;;;;5125438;27;20880;-61
2022/08/19 12:16:33;;;;;;;21.27;17.63;;;20.50;40.80;;;;;;5121632;27;20461;-61
2022/08/19 12:19:03;;;;;;;20.33;17.87;;;20.50;40.80;;;;;;5124258;27;20489;-61
2022/08/19 12:21:31;;;;;;;21.67;18.37;;;20.50;40.60;;;;;;5123919;27;20461;-61
2022/08/19 12:23:59;;;;;;;22.00;17.73;;;20.50;40.50;;;;;;5124698;27;20855;-60
2022/08/19 12:26:29;;;;;;;21.73;18.20;;;20.60;40.30;;;;;;5122036;27;20458;-61
2022/08/19 12:28:56;;;;;;;24.50;20.40;;;20.50;40.00;;;;;;5120224;27;20460;-61
2022/08/19 12:31:22;;;;;;;24.50;21.53;;;20.60;40.10;;;;;;5119820;27;20475;-61
2022/08/19 12:33:52;;;;;;;24.40;20.57;;;20.50;40.10;;;;;;5121526;27;20478;-61
2022/08/19 12:36:19;;;;;;;24.23;19.80;;;20.50;40.20;;;;;;5124113;27;20465;-61
2022/08/19 12:38:46;;;;;;;24.43;20.60;;;20.60;40.30;;;;;;5121446;27;20541;-61
2022/08/19 12:41:17;;;;;;;23.80;20.40;;;20.60;40.30;;;;;;5124431;27;20551;-61
2022/08/19 12:43:44;;;;;;;26.37;21.63;;;20.60;40.10;;;;;;5129626;27;21057;-61
2022/08/19 12:46:12;;;;;;;23.57;21.03;;;20.60;40.10;;;;;;5126008;27;20828;-61
2022/08/19 12:48:41;;;;;;;23.90;20.87;;;20.50;39.90;;;;;;5128376;27;20482;-62
2022/08/19 12:51:12;;;;;;;23.43;20.87;;;20.50;39.80;;;;;;5126378;27;20867;-62
2022/08/19 12:53:39;;;;;;;24.80;21.00;;;20.60;39.90;;;;;;5129369;27;20482;-61
2022/08/19 12:56:06;;;;;;;23.37;20.73;;;20.60;39.90;;;;;;5128258;27;20484;-62
2022/08/19 12:58:34;;;;;;;24.10;20.83;;;20.50;40.10;;;;;;5129066;27;20447;-62
2022/08/19 13:01:06;;;;;;;23.63;20.07;;;20.50;40.20;;;;;;5127598;27;20507;-61